sensor_id;sensor_type;location;lat;lon;timestamp;pressure;altitude;pressure_sealevel;temperature;humidity
18533;BME280;9396;51.510;11.934;2023-04-22T00:01:04;100233.00;;;10.33;89.19
18533;BME280;9396;51.510;11.934;2023-04-22T00:03:31;100237.16;;;10.35;88.89
18533;BME280;9396;51.510;11.934;2023-04-22T00:05:58;100234.88;;;10.40;88.32
18533;BME280;9396;51.510;11.934;2023-04-22T00:08:26;100233.59;;;10.52;87.71
18533;BME280;9396;51.510;11.934;2023-04-22T00:10:53;100228.53;;;10.41;87.10
18533;BME280;9396;51.510;11.934;2023-04-22T00:13:20;100229.28;;;10.51;87.84
18533;BME280;9396;51.510;11.934;2023-04-22T00:15:47;100225.63;;;10.52;87.18
18533;BME280;9396;51.510;11.934;2023-04-22T00:18:14;100223.09;;;10.43;87.44
18533;BME280;9396;51.510;11.934;2023-04-22T00:20:41;100214.31;;;10.50;87.26
18533;BME280;9396;51.510;11.934;2023-04-22T00:23:08;100209.91;;;10.59;86.59
18533;BME280;9396;51.510;11.934;2023-04-22T00:25:37;100209.38;;;10.55;87.00
18533;BME280;9396;51.510;11.934;2023-04-22T00:28:04;100196.44;;;10.68;87.56
18533;BME280;9396;51.510;11.934;2023-04-22T00:30:31;100194.81;;;10.75;87.05
18533;BME280;9396;51.510;11.934;2023-04-22T00:32:58;100198.66;;;10.81;87.07
18533;BME280;9396;51.510;11.934;2023-04-22T00:35:24;100200.94;;;10.68;88.21
18533;BME280;9396;51.510;11.934;2023-04-22T00:37:51;100202.09;;;10.65;86.97
18533;BME280;9396;51.510;11.934;2023-04-22T00:40:18;100198.06;;;10.53;87.49
18533;BME280;9396;51.510;11.934;2023-04-22T00:42:49;100194.28;;;10.64;88.46
18533;BME280;9396;51.510;11.934;2023-04-22T00:45:16;100194.59;;;10.61;89.23
18533;BME280;9396;51.510;11.934;2023-04-22T00:47:44;100189.00;;;10.38;88.23
18533;BME280;9396;51.510;11.934;2023-04-22T00:50:10;100185.81;;;10.35;87.99
18533;BME280;9396;51.510;11.934;2023-04-22T00:52:37;100188.81;;;10.40;88.51
18533;BME280;9396;51.510;11.934;2023-04-22T00:55:04;100191.09;;;10.27;89.36
18533;BME280;9396;51.510;11.934;2023-04-22T00:57:31;100184.75;;;10.20;89.72
18533;BME280;9396;51.510;11.934;2023-04-22T01:00:02;100179.63;;;10.26;90.00
18533;BME280;9396;51.510;11.934;2023-04-22T01:02:29;100176.03;;;10.35;89.04
18533;BME280;9396;51.510;11.934;2023-04-22T01:04:56;100186.75;;;10.26;89.44
18533;BME280;9396;51.510;11.934;2023-04-22T01:07:23;100184.16;;;10.34;89.49
18533;BME280;9396;51.510;11.934;2023-04-22T01:09:50;100177.69;;;10.36;89.21
18533;BME280;9396;51.510;11.934;2023-04-22T01:12:17;100176.53;;;10.39;89.52
18533;BME280;9396;51.510;11.934;2023-04-22T01:14:43;100180.34;;;10.36;89.42
18533;BME280;9396;51.510;11.934;2023-04-22T01:17:12;100178.69;;;10.35;89.41
18533;BME280;9396;51.510;11.934;2023-04-22T01:19:39;100176.88;;;10.36;89.61
18533;BME280;9396;51.510;11.934;2023-04-22T01:22:07;100177.38;;;10.39;89.78
18533;BME280;9396;51.510;11.934;2023-04-22T01:24:38;100176.75;;;10.20;89.89
18533;BME280;9396;51.510;11.934;2023-04-22T01:27:05;100182.19;;;10.10;90.34
18533;BME280;9396;51.510;11.934;2023-04-22T01:29:32;100175.78;;;10.03;90.57
18533;BME280;9396;51.510;11.934;2023-04-22T01:31:59;100170.88;;;9.91;90.49
18533;BME280;9396;51.510;11.934;2023-04-22T01:34:26;100172.13;;;9.79;90.67
18533;BME280;9396;51.510;11.934;2023-04-22T01:36:53;100169.06;;;9.91;90.44
18533;BME280;9396;51.510;11.934;2023-04-22T01:39:20;100170.41;;;9.95;90.39
18533;BME280;9396;51.510;11.934;2023-04-22T01:41:48;100173.81;;;10.05;89.61
18533;BME280;9396;51.510;11.934;2023-04-22T01:44:15;100174.94;;;10.03;89.66
18533;BME280;9396;51.510;11.934;2023-04-22T01:46:42;100175.50;;;9.89;90.38
18533;BME280;9396;51.510;11.934;2023-04-22T01:49:08;100174.91;;;9.95;90.83
18533;BME280;9396;51.510;11.934;2023-04-22T01:51:35;100177.25;;;9.98;90.22
18533;BME280;9396;51.510;11.934;2023-04-22T01:54:02;100170.78;;;10.00;89.44
18533;BME280;9396;51.510;11.934;2023-04-22T01:56:29;100176.75;;;10.02;89.94
18533;BME280;9396;51.510;11.934;2023-04-22T01:58:57;100178.25;;;9.97;90.41
18533;BME280;9396;51.510;11.934;2023-04-22T02:01:23;100175.19;;;9.92;89.43
18533;BME280;9396;51.510;11.934;2023-04-22T02:03:50;100172.09;;;9.96;89.16
18533;BME280;9396;51.510;11.934;2023-04-22T02:06:17;100173.97;;;10.04;89.35
18533;BME280;9396;51.510;11.934;2023-04-22T02:08:43;100174.78;;;10.04;90.35
18533;BME280;9396;51.510;11.934;2023-04-22T02:11:10;100178.66;;;10.10;90.47
18533;BME280;9396;51.510;11.934;2023-04-22T02:13:38;100175.59;;;9.79;88.70
18533;BME280;9396;51.510;11.934;2023-04-22T02:16:07;100179.28;;;9.86;89.55
18533;BME280;9396;51.510;11.934;2023-04-22T02:18:33;100027.19;;;9.07;89.43
18533;BME280;9396;51.510;11.934;2023-04-22T02:21:00;100175.56;;;10.14;90.01
18533;BME280;9396;51.510;11.934;2023-04-22T02:23:27;100183.44;;;10.06;90.15
18533;BME280;9396;51.510;11.934;2023-04-22T02:25:54;100177.69;;;10.11;90.71
18533;BME280;9396;51.510;11.934;2023-04-22T02:28:21;100174.19;;;10.10;90.64
18533;BME280;9396;51.510;11.934;2023-04-22T02:30:48;100176.91;;;10.18;90.70
18533;BME280;9396;51.510;11.934;2023-04-22T02:33:16;100181.91;;;10.21;90.59
18533;BME280;9396;51.510;11.934;2023-04-22T02:35:43;100178.59;;;10.19;90.73
18533;BME280;9396;51.510;11.934;2023-04-22T02:38:10;100179.03;;;10.15;90.85
18533;BME280;9396;51.510;11.934;2023-04-22T02:40:36;100174.72;;;10.14;90.83
18533;BME280;9396;51.510;11.934;2023-04-22T02:43:03;100170.53;;;10.11;90.82
18533;BME280;9396;51.510;11.934;2023-04-22T02:45:30;100173.34;;;10.10;90.74
18533;BME280;9396;51.510;11.934;2023-04-22T02:47:57;100170.53;;;10.11;90.70
18533;BME280;9396;51.510;11.934;2023-04-22T02:50:25;100171.16;;;10.05;90.71
18533;BME280;9396;51.510;11.934;2023-04-22T02:52:51;100175.72;;;9.95;90.94
18533;BME280;9396;51.510;11.934;2023-04-22T02:55:18;100170.59;;;9.76;91.62
18533;BME280;9396;51.510;11.934;2023-04-22T02:57:46;100171.75;;;9.73;91.94
18533;BME280;9396;51.510;11.934;2023-04-22T03:00:13;100165.44;;;9.74;92.41
18533;BME280;9396;51.510;11.934;2023-04-22T03:02:39;100168.69;;;9.68;92.23
18533;BME280;9396;51.510;11.934;2023-04-22T03:05:06;100172.59;;;9.56;92.63
18533;BME280;9396;51.510;11.934;2023-04-22T03:07:35;100169.19;;;9.46;93.09
18533;BME280;9396;51.510;11.934;2023-04-22T03:10:03;100172.97;;;9.26;93.58
18533;BME280;9396;51.510;11.934;2023-04-22T03:12:30;100170.91;;;9.20;93.88
18533;BME280;9396;51.510;11.934;2023-04-22T03:14:56;100175.03;;;9.15;94.21
18533;BME280;9396;51.510;11.934;2023-04-22T03:17:23;100167.59;;;9.18;94.48
18533;BME280;9396;51.510;11.934;2023-04-22T03:19:51;100170.00;;;9.12;94.79
18533;BME280;9396;51.510;11.934;2023-04-22T03:22:17;100176.09;;;9.22;94.93
18533;BME280;9396;51.510;11.934;2023-04-22T03:24:45;100168.19;;;9.30;94.64
18533;BME280;9396;51.510;11.934;2023-04-22T03:27:12;100162.06;;;9.29;94.75
18533;BME280;9396;51.510;11.934;2023-04-22T03:29:39;100167.81;;;9.25;95.01
18533;BME280;9396;51.510;11.934;2023-04-22T03:32:05;100162.41;;;9.17;95.27
18533;BME280;9396;51.510;11.934;2023-04-22T03:34:32;100154.09;;;9.12;94.62
18533;BME280;9396;51.510;11.934;2023-04-22T03:36:58;100151.69;;;9.18;94.97
18533;BME280;9396;51.510;11.934;2023-04-22T03:39:25;100161.16;;;9.21;94.74
18533;BME280;9396;51.510;11.934;2023-04-22T03:41:53;100163.50;;;9.24;95.10
18533;BME280;9396;51.510;11.934;2023-04-22T03:44:19;100152.59;;;9.27;94.70
18533;BME280;9396;51.510;11.934;2023-04-22T03:46:46;100163.09;;;9.19;94.61
18533;BME280;9396;51.510;11.934;2023-04-22T03:49:13;100157.97;;;9.17;94.78
18533;BME280;9396;51.510;11.934;2023-04-22T03:51:39;100157.97;;;9.17;94.78
18533;BME280;9396;51.510;11.934;2023-04-22T03:54:06;100164.09;;;9.18;94.69
18533;BME280;9396;51.510;11.934;2023-04-22T03:56:33;100168.72;;;9.16;94.74
18533;BME280;9396;51.510;11.934;2023-04-22T03:59:02;100164.41;;;9.15;94.11
18533;BME280;9396;51.510;11.934;2023-04-22T04:01:28;100162.78;;;9.04;94.30
18533;BME280;9396;51.510;11.934;2023-04-22T04:03:55;100156.91;;;8.83;94.35
18533;BME280;9396;51.510;11.934;2023-04-22T04:06:22;100161.47;;;8.73;94.64
18533;BME280;9396;51.510;11.934;2023-04-22T04:08:48;100166.91;;;8.72;95.55
18533;BME280;9396;51.510;11.934;2023-04-22T04:11:15;100159.34;;;8.77;95.80
18533;BME280;9396;51.510;11.934;2023-04-22T04:13:42;100169.38;;;8.83;96.03
18533;BME280;9396;51.510;11.934;2023-04-22T04:16:10;100155.88;;;8.94;95.85
18533;BME280;9396;51.510;11.934;2023-04-22T04:18:37;100162.50;;;8.90;95.15
18533;BME280;9396;51.510;11.934;2023-04-22T04:21:04;100165.38;;;8.96;95.81
18533;BME280;9396;51.510;11.934;2023-04-22T04:23:30;100164.31;;;9.07;95.52
18533;BME280;9396;51.510;11.934;2023-04-22T04:25:57;100166.75;;;9.18;95.55
18533;BME280;9396;51.510;11.934;2023-04-22T04:28:25;100176.84;;;9.14;95.75
18533;BME280;9396;51.510;11.934;2023-04-22T04:30:54;100171.75;;;9.21;94.60
18533;BME280;9396;51.510;11.934;2023-04-22T04:33:22;100178.47;;;8.98;95.23
18533;BME280;9396;51.510;11.934;2023-04-22T04:35:49;100173.41;;;9.04;95.17
18533;BME280;9396;51.510;11.934;2023-04-22T04:38:15;100176.03;;;8.87;95.63
18533;BME280;9396;51.510;11.934;2023-04-22T04:40:42;100179.44;;;8.79;96.22
18533;BME280;9396;51.510;11.934;2023-04-22T04:43:09;100176.66;;;8.44;97.03
18533;BME280;9396;51.510;11.934;2023-04-22T04:45:37;100166.66;;;8.38;98.55
18533;BME280;9396;51.510;11.934;2023-04-22T04:48:04;100172.16;;;8.54;97.68
18533;BME280;9396;51.510;11.934;2023-04-22T04:50:33;100173.47;;;8.68;99.00
18533;BME280;9396;51.510;11.934;2023-04-22T04:53:00;100171.88;;;8.84;99.04
18533;BME280;9396;51.510;11.934;2023-04-22T04:55:27;100159.53;;;8.93;98.41
18533;BME280;9396;51.510;11.934;2023-04-22T04:57:53;100166.59;;;9.02;99.17
18533;BME280;9396;51.510;11.934;2023-04-22T05:00:20;100164.69;;;9.12;98.58
18533;BME280;9396;51.510;11.934;2023-04-22T05:02:46;100160.84;;;9.24;98.94
18533;BME280;9396;51.510;11.934;2023-04-22T05:05:13;100161.50;;;9.43;98.02
18533;BME280;9396;51.510;11.934;2023-04-22T05:07:41;100160.47;;;9.54;98.30
18533;BME280;9396;51.510;11.934;2023-04-22T05:10:09;100171.75;;;9.73;97.79
18533;BME280;9396;51.510;11.934;2023-04-22T05:12:36;100170.81;;;9.83;97.93
18533;BME280;9396;51.510;11.934;2023-04-22T05:15:03;100165.59;;;9.99;97.20
18533;BME280;9396;51.510;11.934;2023-04-22T05:17:30;100170.97;;;10.24;96.01
18533;BME280;9396;51.510;11.934;2023-04-22T05:19:57;100157.06;;;10.72;96.19
18533;BME280;9396;51.510;11.934;2023-04-22T05:22:23;100156.06;;;11.31;94.15
18533;BME280;9396;51.510;11.934;2023-04-22T05:24:51;100158.59;;;12.05;91.35
18533;BME280;9396;51.510;11.934;2023-04-22T05:27:18;100143.91;;;12.94;88.76
18533;BME280;9396;51.510;11.934;2023-04-22T05:29:45;100151.28;;;14.05;86.19
18533;BME280;9396;51.510;11.934;2023-04-22T05:32:11;100140.13;;;14.89;80.47
18533;BME280;9396;51.510;11.934;2023-04-22T05:34:38;100149.34;;;15.79;75.97
18533;BME280;9396;51.510;11.934;2023-04-22T05:37:05;100140.03;;;16.64;74.04
18533;BME280;9396;51.510;11.934;2023-04-22T05:39:32;100149.75;;;17.12;71.39
18533;BME280;9396;51.510;11.934;2023-04-22T05:42:00;100150.44;;;17.28;69.18
18533;BME280;9396;51.510;11.934;2023-04-22T05:44:27;100028.13;;;16.84;67.88
18533;BME280;9396;51.510;11.934;2023-04-22T05:46:54;100133.75;;;18.24;65.80
18533;BME280;9396;51.510;11.934;2023-04-22T05:49:21;100130.59;;;19.03;65.53
18533;BME280;9396;51.510;11.934;2023-04-22T05:51:48;100141.44;;;19.41;64.63
18533;BME280;9396;51.510;11.934;2023-04-22T05:54:15;100136.75;;;19.86;64.59
18533;BME280;9396;51.510;11.934;2023-04-22T05:56:42;100135.91;;;20.35;62.62
18533;BME280;9396;51.510;11.934;2023-04-22T05:59:10;100130.88;;;20.92;59.61
18533;BME280;9396;51.510;11.934;2023-04-22T06:01:36;100122.28;;;21.84;59.17
18533;BME280;9396;51.510;11.934;2023-04-22T06:04:03;100124.94;;;22.60;57.39
18533;BME280;9396;51.510;11.934;2023-04-22T06:06:30;100117.25;;;23.37;56.63
18533;BME280;9396;51.510;11.934;2023-04-22T06:08:57;100118.81;;;23.94;55.53
18533;BME280;9396;51.510;11.934;2023-04-22T06:11:24;100115.34;;;24.53;55.00
18533;BME280;9396;51.510;11.934;2023-04-22T06:13:50;100115.31;;;23.82;53.37
18533;BME280;9396;51.510;11.934;2023-04-22T06:16:18;100127.03;;;23.99;55.46
18533;BME280;9396;51.510;11.934;2023-04-22T06:18:45;100122.28;;;24.22;54.57
18533;BME280;9396;51.510;11.934;2023-04-22T06:21:12;100125.13;;;24.49;53.02
18533;BME280;9396;51.510;11.934;2023-04-22T06:23:38;100124.16;;;23.89;53.47
18533;BME280;9396;51.510;11.934;2023-04-22T06:26:05;100123.84;;;24.18;54.66
18533;BME280;9396;51.510;11.934;2023-04-22T06:28:31;100114.59;;;24.19;54.39
18533;BME280;9396;51.510;11.934;2023-04-22T06:30:58;100113.06;;;24.83;54.24
18533;BME280;9396;51.510;11.934;2023-04-22T06:33:26;100114.34;;;24.76;51.87
18533;BME280;9396;51.510;11.934;2023-04-22T06:35:53;100121.84;;;24.14;53.28
18533;BME280;9396;51.510;11.934;2023-04-22T06:38:19;100118.41;;;24.18;54.24
18533;BME280;9396;51.510;11.934;2023-04-22T06:40:46;100107.13;;;25.34;53.99
18533;BME280;9396;51.510;11.934;2023-04-22T06:43:12;100097.78;;;26.15;52.18
18533;BME280;9396;51.510;11.934;2023-04-22T06:45:39;100108.09;;;25.77;53.04
18533;BME280;9396;51.510;11.934;2023-04-22T06:48:06;100101.31;;;26.16;51.79
18533;BME280;9396;51.510;11.934;2023-04-22T06:50:35;100105.75;;;25.10;51.92
18533;BME280;9396;51.510;11.934;2023-04-22T06:53:01;100104.13;;;24.28;53.08
18533;BME280;9396;51.510;11.934;2023-04-22T06:55:28;100108.75;;;25.35;53.06
18533;BME280;9396;51.510;11.934;2023-04-22T06:57:55;100115.81;;;23.79;52.94
18533;BME280;9396;51.510;11.934;2023-04-22T07:00:21;100114.13;;;23.73;54.01
18533;BME280;9396;51.510;11.934;2023-04-22T07:02:49;100105.59;;;23.53;54.79
18533;BME280;9396;51.510;11.934;2023-04-22T07:05:16;100109.59;;;24.11;56.18
18533;BME280;9396;51.510;11.934;2023-04-22T07:07:44;100111.03;;;23.53;55.08
18533;BME280;9396;51.510;11.934;2023-04-22T07:10:11;100110.72;;;23.82;56.99
18533;BME280;9396;51.510;11.934;2023-04-22T07:12:38;100108.75;;;23.05;55.45
18533;BME280;9396;51.510;11.934;2023-04-22T07:15:06;100105.59;;;23.53;55.07
18533;BME280;9396;51.510;11.934;2023-04-22T07:17:33;100116.97;;;23.66;54.81
18533;BME280;9396;51.510;11.934;2023-04-22T07:20:00;100108.56;;;24.34;55.91
18533;BME280;9396;51.510;11.934;2023-04-22T07:22:26;100107.00;;;24.38;56.25
18533;BME280;9396;51.510;11.934;2023-04-22T07:24:54;100109.41;;;24.18;55.99
18533;BME280;9396;51.510;11.934;2023-04-22T07:27:21;100104.31;;;24.05;54.61
18533;BME280;9396;51.510;11.934;2023-04-22T07:29:48;100109.06;;;23.65;53.86
18533;BME280;9396;51.510;11.934;2023-04-22T07:32:14;100098.94;;;23.44;57.15
18533;BME280;9396;51.510;11.934;2023-04-22T07:34:41;100107.81;;;22.60;56.32
18533;BME280;9396;51.510;11.934;2023-04-22T07:37:08;100113.50;;;22.35;57.01
18533;BME280;9396;51.510;11.934;2023-04-22T07:39:35;100101.56;;;22.36;56.78
18533;BME280;9396;51.510;11.934;2023-04-22T07:42:03;100096.00;;;22.54;57.04
18533;BME280;9396;51.510;11.934;2023-04-22T07:44:29;100103.94;;;22.56;55.64
18533;BME280;9396;51.510;11.934;2023-04-22T07:46:56;100105.84;;;22.55;55.87
18533;BME280;9396;51.510;11.934;2023-04-22T07:49:23;100108.84;;;22.70;57.57
18533;BME280;9396;51.510;11.934;2023-04-22T07:51:50;100102.00;;;23.07;58.77
18533;BME280;9396;51.510;11.934;2023-04-22T07:54:16;100087.75;;;22.72;56.73
18533;BME280;9396;51.510;11.934;2023-04-22T07:56:43;100091.56;;;22.48;56.52
18533;BME280;9396;51.510;11.934;2023-04-22T07:59:11;100089.69;;;22.37;58.95
18533;BME280;9396;51.510;11.934;2023-04-22T08:01:37;100080.13;;;22.46;57.92
18533;BME280;9396;51.510;11.934;2023-04-22T08:04:04;100081.81;;;22.01;57.56
18533;BME280;9396;51.510;11.934;2023-04-22T08:06:31;100080.81;;;22.53;57.86
18533;BME280;9396;51.510;11.934;2023-04-22T08:08:58;100076.63;;;22.85;57.97
18533;BME280;9396;51.510;11.934;2023-04-22T08:11:25;100084.78;;;22.74;55.33
18533;BME280;9396;51.510;11.934;2023-04-22T08:13:52;100078.03;;;22.13;54.96
18533;BME280;9396;51.510;11.934;2023-04-22T08:16:20;100079.91;;;22.13;56.99
18533;BME280;9396;51.510;11.934;2023-04-22T08:18:46;100083.69;;;22.00;55.96
18533;BME280;9396;51.510;11.934;2023-04-22T08:21:13;100082.84;;;22.11;57.48
18533;BME280;9396;51.510;11.934;2023-04-22T08:23:40;100076.16;;;21.91;58.37
18533;BME280;9396;51.510;11.934;2023-04-22T08:26:07;100082.03;;;21.99;58.47
18533;BME280;9396;51.510;11.934;2023-04-22T08:28:36;100074.91;;;21.75;57.83
18533;BME280;9396;51.510;11.934;2023-04-22T08:31:02;100087.66;;;21.75;58.98
18533;BME280;9396;51.510;11.934;2023-04-22T08:33:31;100074.75;;;21.36;57.98
18533;BME280;9396;51.510;11.934;2023-04-22T08:35:58;100079.34;;;21.05;59.82
18533;BME280;9396;51.510;11.934;2023-04-22T08:38:25;100079.13;;;20.89;57.79
18533;BME280;9396;51.510;11.934;2023-04-22T08:40:55;100091.47;;;20.67;58.72
18533;BME280;9396;51.510;11.934;2023-04-22T08:43:24;100086.78;;;20.92;61.18
18533;BME280;9396;51.510;11.934;2023-04-22T08:45:51;100080.03;;;20.83;60.20
18533;BME280;9396;51.510;11.934;2023-04-22T08:48:18;100079.34;;;21.05;59.83
18533;BME280;9396;51.510;11.934;2023-04-22T08:50:47;100078.28;;;20.88;59.46
18533;BME280;9396;51.510;11.934;2023-04-22T08:53:13;100079.78;;;21.02;60.95
18533;BME280;9396;51.510;11.934;2023-04-22T08:55:43;100073.94;;;20.87;60.01
18533;BME280;9396;51.510;11.934;2023-04-22T08:58:10;100074.25;;;20.79;58.55
18533;BME280;9396;51.510;11.934;2023-04-22T09:00:38;100081.47;;;21.03;61.55
18533;BME280;9396;51.510;11.934;2023-04-22T09:03:05;100079.13;;;20.89;60.36
18533;BME280;9396;51.510;11.934;2023-04-22T09:05:32;99997.94;;;20.48;61.03
18533;BME280;9396;51.510;11.934;2023-04-22T09:08:01;100066.84;;;20.75;58.55
18533;BME280;9396;51.510;11.934;2023-04-22T09:10:28;100074.94;;;20.75;60.83
18533;BME280;9396;51.510;11.934;2023-04-22T09:12:56;100070.94;;;20.77;59.52
18533;BME280;9396;51.510;11.934;2023-04-22T09:15:23;100073.22;;;20.80;60.96
18533;BME280;9396;51.510;11.934;2023-04-22T09:17:50;100065.53;;;20.77;60.69
18533;BME280;9396;51.510;11.934;2023-04-22T09:20:17;100076.22;;;20.72;62.38
18533;BME280;9396;51.510;11.934;2023-04-22T09:22:48;100072.94;;;20.52;60.21
18533;BME280;9396;51.510;11.934;2023-04-22T09:25:17;100067.81;;;20.62;62.06
18533;BME280;9396;51.510;11.934;2023-04-22T09:27:48;100068.06;;;20.43;61.88
18533;BME280;9396;51.510;11.934;2023-04-22T09:30:16;100062.19;;;20.46;62.34
18533;BME280;9396;51.510;11.934;2023-04-22T09:32:50;100061.06;;;20.53;61.37
18533;BME280;9396;51.510;11.934;2023-04-22T09:35:23;100051.50;;;20.69;62.77
18533;BME280;9396;51.510;11.934;2023-04-22T09:37:51;100052.97;;;20.53;60.33
18533;BME280;9396;51.510;11.934;2023-04-22T09:40:19;100057.84;;;20.63;62.99
18533;BME280;9396;51.510;11.934;2023-04-22T09:42:50;100058.97;;;20.37;60.01
18533;BME280;9396;51.510;11.934;2023-04-22T09:45:30;100051.38;;;20.27;60.86
18533;BME280;9396;51.510;11.934;2023-04-22T09:48:01;100063.34;;;20.38;61.78
18533;BME280;9396;51.510;11.934;2023-04-22T09:50:28;100060.78;;;20.25;60.58
18533;BME280;9396;51.510;11.934;2023-04-22T09:52:57;100050.00;;;20.00;61.68
18533;BME280;9396;51.510;11.934;2023-04-22T09:55:27;100056.03;;;20.20;63.67
18533;BME280;9396;51.510;11.934;2023-04-22T09:57:55;100052.38;;;20.33;63.85
18533;BME280;9396;51.510;11.934;2023-04-22T10:00:24;100052.22;;;20.46;62.63
18533;BME280;9396;51.510;11.934;2023-04-22T10:02:51;100046.72;;;20.53;62.35
18533;BME280;9396;51.510;11.934;2023-04-22T10:05:17;100041.13;;;20.36;61.23
18533;BME280;9396;51.510;11.934;2023-04-22T10:07:45;100049.84;;;20.38;61.53
18533;BME280;9396;51.510;11.934;2023-04-22T10:10:11;100039.91;;;20.32;62.07
18533;BME280;9396;51.510;11.934;2023-04-22T10:12:40;100043.50;;;20.26;60.86
18533;BME280;9396;51.510;11.934;2023-04-22T10:15:08;100028.38;;;20.25;63.28
18533;BME280;9396;51.510;11.934;2023-04-22T10:17:36;100030.16;;;20.31;64.18
18533;BME280;9396;51.510;11.934;2023-04-22T10:20:06;100026.09;;;20.40;62.99
18533;BME280;9396;51.510;11.934;2023-04-22T10:22:39;100026.41;;;20.50;61.83
18533;BME280;9396;51.510;11.934;2023-04-22T10:25:10;99952.09;;;20.05;62.30
18533;BME280;9396;51.510;11.934;2023-04-22T10:27:37;100017.81;;;20.53;61.14
18533;BME280;9396;51.510;11.934;2023-04-22T10:30:08;100020.91;;;20.57;62.09
18533;BME280;9396;51.510;11.934;2023-04-22T10:32:36;100011.88;;;20.63;63.70
18533;BME280;9396;51.510;11.934;2023-04-22T10:35:08;100005.94;;;20.54;61.43
18533;BME280;9396;51.510;11.934;2023-04-22T10:37:36;99996.06;;;20.48;61.39
18533;BME280;9396;51.510;11.934;2023-04-22T10:40:05;99995.31;;;20.59;63.98
18533;BME280;9396;51.510;11.934;2023-04-22T10:42:33;100010.47;;;20.60;62.21
18533;BME280;9396;51.510;11.934;2023-04-22T10:45:02;100001.06;;;20.63;61.74
18533;BME280;9396;51.510;11.934;2023-04-22T10:47:32;100005.69;;;20.44;61.15
18533;BME280;9396;51.510;11.934;2023-04-22T10:52:48;100002.13;;;20.62;61.47
18533;BME280;9396;51.510;11.934;2023-04-22T10:55:15;99996.56;;;20.57;60.98
18533;BME280;9396;51.510;11.934;2023-04-22T10:57:43;99992.31;;;20.49;62.33
18533;BME280;9396;51.510;11.934;2023-04-22T11:00:38;99990.66;;;20.48;60.86
18533;BME280;9396;51.510;11.934;2023-04-22T11:03:14;99988.94;;;20.54;62.19
18533;BME280;9396;51.510;11.934;2023-04-22T11:05:41;99982.91;;;20.52;60.43
18533;BME280;9396;51.510;11.934;2023-04-22T11:08:13;99975.19;;;20.55;61.25
18533;BME280;9396;51.510;11.934;2023-04-22T11:10:42;99978.84;;;20.61;60.09
18533;BME280;9396;51.510;11.934;2023-04-22T11:13:11;99982.06;;;20.69;59.29
18533;BME280;9396;51.510;11.934;2023-04-22T11:15:40;99981.44;;;20.67;58.96
18533;BME280;9396;51.510;11.934;2023-04-22T11:18:12;99977.84;;;20.73;59.17
18533;BME280;9396;51.510;11.934;2023-04-22T11:20:39;99973.59;;;20.77;58.44
18533;BME280;9396;51.510;11.934;2023-04-22T11:23:06;99967.28;;;20.83;59.76
18533;BME280;9396;51.510;11.934;2023-04-22T11:25:33;99967.53;;;20.93;57.74
18533;BME280;9396;51.510;11.934;2023-04-22T11:27:59;99966.03;;;20.97;58.80
18533;BME280;9396;51.510;11.934;2023-04-22T11:30:27;99954.81;;;21.00;59.51
18533;BME280;9396;51.510;11.934;2023-04-22T11:32:56;99957.03;;;21.03;58.43
18533;BME280;9396;51.510;11.934;2023-04-22T11:35:27;99953.72;;;21.01;55.54
18533;BME280;9396;51.510;11.934;2023-04-22T11:37:55;99961.84;;;21.01;55.79
18533;BME280;9396;51.510;11.934;2023-04-22T11:40:23;99962.44;;;21.03;55.86
18533;BME280;9396;51.510;11.934;2023-04-22T11:42:50;99954.16;;;20.98;53.98
18533;BME280;9396;51.510;11.934;2023-04-22T11:45:17;99956.78;;;21.05;55.84
18533;BME280;9396;51.510;11.934;2023-04-22T11:47:44;99944.09;;;21.05;54.82
18533;BME280;9396;51.510;11.934;2023-04-22T11:50:12;99943.03;;;21.06;55.64
18533;BME280;9396;51.510;11.934;2023-04-22T11:52:46;99943.34;;;20.98;54.44
18533;BME280;9396;51.510;11.934;2023-04-22T11:55:14;99947.56;;;20.94;56.22
18533;BME280;9396;51.510;11.934;2023-04-22T11:57:45;99945.03;;;20.99;56.09
18533;BME280;9396;51.510;11.934;2023-04-22T12:00:13;99938.94;;;21.15;56.33
18533;BME280;9396;51.510;11.934;2023-04-22T12:02:42;99935.75;;;21.07;55.00
18533;BME280;9396;51.510;11.934;2023-04-22T12:05:10;99932.69;;;21.15;55.45
18533;BME280;9396;51.510;11.934;2023-04-22T12:07:38;99922.56;;;21.22;54.59
18533;BME280;9396;51.510;11.934;2023-04-22T12:10:07;99930.94;;;21.20;55.97
18533;BME280;9396;51.510;11.934;2023-04-22T12:12:38;99936.34;;;21.20;54.14
18533;BME280;9396;51.510;11.934;2023-04-22T12:15:09;99926.00;;;21.17;54.44
18533;BME280;9396;51.510;11.934;2023-04-22T12:17:36;99920.09;;;21.20;56.56
18533;BME280;9396;51.510;11.934;2023-04-22T12:20:03;99923.88;;;21.19;54.78
18533;BME280;9396;51.510;11.934;2023-04-22T12:22:31;99911.41;;;21.18;54.48
18533;BME280;9396;51.510;11.934;2023-04-22T12:25:00;99921.78;;;21.21;55.80
18533;BME280;9396;51.510;11.934;2023-04-22T12:27:28;99913.19;;;21.24;56.79
18533;BME280;9396;51.510;11.934;2023-04-22T12:29:56;99904.94;;;21.19;56.63
18533;BME280;9396;51.510;11.934;2023-04-22T12:32:25;99920.81;;;21.27;55.60
18533;BME280;9396;51.510;11.934;2023-04-22T12:34:52;99912.94;;;21.26;57.01
18533;BME280;9396;51.510;11.934;2023-04-22T12:37:19;99918.81;;;21.23;57.25
18533;BME280;9396;51.510;11.934;2023-04-22T12:39:45;99915.28;;;21.22;56.29
18533;BME280;9396;51.510;11.934;2023-04-22T12:42:12;99908.00;;;21.23;58.15
18533;BME280;9396;51.510;11.934;2023-04-22T12:44:40;99904.94;;;21.19;57.30
18533;BME280;9396;51.510;11.934;2023-04-22T12:47:07;99903.88;;;21.20;58.05
18533;BME280;9396;51.510;11.934;2023-04-22T12:49:35;99902.84;;;21.21;58.26
18533;BME280;9396;51.510;11.934;2023-04-22T12:52:02;99900.13;;;21.21;58.02
18533;BME280;9396;51.510;11.934;2023-04-22T12:54:29;99854.44;;;20.90;57.36
18533;BME280;9396;51.510;11.934;2023-04-22T12:56:56;99902.25;;;21.19;57.13
18533;BME280;9396;51.510;11.934;2023-04-22T12:59:23;99896.81;;;21.19;57.23